Terminal Aerodrome Forecast
Issued by NWS Cleveland, OH

Home | Current Version | Previous Version | Text Only | Print | Product List | Glossary On
Versions: 1 2 3 4 5 6 7 8 9 10 11 12 13 14 15 16 17 18 19 20 21 22 23 24 25 26 27 28 29 30
000
FTUS41 KCLE 311000 AAB
TAFCLE
TAF AMD
KCLE 311031Z 3111/0112 22010KT P6SM SCT012 OVC030
     FM311300 22010KT P6SM SCT008 OVC012
     FM311500 22010KT 6SM -SHRA VCTS SCT008CB OVC012
      TEMPO 3115/3117 4SM SHRA SCT008 OVC012
     FM311800 22010KT P6SM OVC020
     FM010800 20005KT 4SM BR BKN015=

USA.gov is the U.S. government's official web portal to all federal, state and local government web resources and services.